Time;durP1;ratioP1;P1;durP2;ratioP2;P2;SDS_P1;SDS_P2;PMS_P1;PMS_P2;Temp;Humidity;BMP_temperature;BMP_pressure;BME280_temperature;BME280_humidity;BME280_pressure;Samples;Min_cycle;Max_cycle;Signal;HPM_P1;HPM_P2
2021/05/11 00:00:42;;;;;;;2.10;0.87;;;;;;;12.57;66.91;100521.91;5037076;28;20053;-67
2021/05/11 00:03:08;;;;;;;1.07;0.67;;;;;;;12.42;67.25;100507.25;5040222;28;20048;-70
2021/05/11 00:05:34;;;;;;;3.07;1.07;;;;;;;12.32;67.29;100517.38;5037892;28;20053;-74
2021/05/11 00:08:01;;;;;;;1.17;0.70;;;;;;;12.21;67.48;100512.19;5038369;28;20041;-71
2021/05/11 00:10:29;;;;;;;2.33;1.03;;;;;;;12.16;67.45;100520.59;5038133;28;20493;-75
2021/05/11 00:12:56;;;;;;;4.20;0.90;;;;;;;12.09;67.49;100510.56;5044400;28;20390;-72
2021/05/11 00:15:23;;;;;;;10.17;1.57;;;;;;;12.11;67.34;100523.47;5037528;28;20049;-72
2021/05/11 00:17:50;;;;;;;2.97;1.17;;;;;;;11.92;67.40;100492.50;5037696;28;20041;-73
2021/05/11 00:20:18;;;;;;;8.77;1.00;;;;;;;12.08;67.43;100524.88;5041217;28;20055;-75
2021/05/11 00:22:46;;;;;;;3.87;0.90;;;;;;;12.04;67.52;100518.19;5043344;28;20653;-69
2021/05/11 00:25:13;;;;;;;1.83;1.30;;;;;;;12.08;67.47;100514.50;5037905;28;20072;-66
2021/05/11 00:27:41;;;;;;;1.83;1.10;;;;;;;11.96;67.39;100500.03;5032227;28;20462;-68
2021/05/11 00:30:09;;;;;;;2.93;0.90;;;;;;;12.05;67.28;100506.69;5034333;28;20049;-67
2021/05/11 00:32:36;;;;;;;2.07;1.10;;;;;;;12.16;67.05;100517.81;5035303;28;20056;-67
2021/05/11 00:35:03;;;;;;;13.13;1.57;;;;;;;12.22;66.86;100520.28;5039357;28;20072;-68
2021/05/11 00:37:29;;;;;;;3.20;1.20;;;;;;;12.26;66.93;100526.13;5034025;28;20194;-68
2021/05/11 00:39:56;;;;;;;5.43;1.40;;;;;;;12.28;66.99;100523.88;5037339;28;20049;-66
2021/05/11 00:42:22;;;;;;;3.20;1.03;;;;;;;12.32;66.62;100528.59;5036516;28;20167;-69
2021/05/11 00:44:49;;;;;;;2.10;1.10;;;;;;;12.21;66.98;100528.97;5037691;28;21014;-69
2021/05/11 00:47:15;;;;;;;1.07;0.73;;;;;;;12.21;66.96;100531.78;5036200;28;20041;-68
2021/05/11 00:49:42;;;;;;;1.80;1.43;;;;;;;12.22;67.03;100531.47;5033987;28;20068;-69
2021/05/11 00:52:08;;;;;;;4.63;0.93;;;;;;;11.98;67.32;100508.16;5037172;28;20051;-70
2021/05/11 00:54:35;;;;;;;6.23;1.73;;;;;;;12.11;67.24;100524.28;5037210;28;20076;-71
2021/05/11 00:57:03;;;;;;;3.17;0.87;;;;;;;11.97;67.27;100512.09;5033662;28;20545;-70
2021/05/11 00:59:30;;;;;;;3.77;0.93;;;;;;;12.09;67.27;100526.53;5043014;28;20053;-70
2021/05/11 01:01:58;;;;;;;3.43;1.17;;;;;;;12.17;67.14;100533.47;5035624;28;20497;-69
2021/05/11 01:04:25;;;;;;;1.83;1.13;;;;;;;12.24;66.76;100532.03;5037037;28;20048;-69
2021/05/11 01:06:53;;;;;;;3.27;1.40;;;;;;;12.24;66.78;100539.56;5036311;28;20048;-67
2021/05/11 01:09:21;;;;;;;4.70;1.13;;;;;;;12.25;66.81;100539.28;5038825;28;20049;-68
2021/05/11 01:11:47;;;;;;;6.30;1.37;;;;;;;12.28;66.95;100537.88;5033096;28;20085;-70
2021/05/11 01:14:14;;;;;;;2.80;1.10;;;;;;;12.31;66.68;100531.69;5034684;28;20049;-68
2021/05/11 01:16:42;;;;;;;1.40;0.73;;;;;;;12.35;66.65;100521.56;5033484;28;20476;-67
2021/05/11 01:19:26;;;;;;;1.67;1.33;;;;;;;12.42;66.51;100524.88;5036237;28;20122;-65
2021/05/11 01:24:45;;;;;;;1.03;0.80;;;;;;;12.39;66.80;100517.06;5031946;28;20045;-64
2021/05/11 01:29:51;;;;;;;2.73;0.87;;;;;;;12.47;66.65;100516.41;5037409;28;20045;-63
2021/05/11 02:23:14;;;;;;;4.33;1.50;;;;;;;12.51;67.58;100556.72;5033119;28;20103;-73
2021/05/11 02:25:41;;;;;;;4.60;1.37;;;;;;;12.54;67.74;100561.72;5039037;28;20037;-82
2021/05/11 02:28:07;;;;;;;3.43;1.47;;;;;;;12.60;67.56;100561.69;5037186;28;20052;-75
2021/05/11 02:30:34;;;;;;;11.03;1.97;;;;;;;12.63;67.59;100567.53;5041414;28;20124;-75
2021/05/11 02:33:02;;;;;;;5.43;1.87;;;;;;;12.54;67.58;100544.06;5040208;28;20564;-78
2021/05/11 02:35:28;;;;;;;4.10;1.50;;;;;;;12.70;67.60;100572.81;5030383;28;20140;-80
2021/05/11 02:37:55;;;;;;;3.40;0.97;;;;;;;12.72;67.48;100568.59;5030603;28;20409;-80
2021/05/11 02:40:22;;;;;;;6.90;1.30;;;;;;;12.72;67.66;100567.75;5034669;28;20049;-79
2021/05/11 02:42:51;;;;;;;3.80;1.30;;;;;;;12.71;66.97;100572.50;5037056;28;20490;-77
2021/05/11 02:45:17;;;;;;;5.07;1.10;;;;;;;12.71;67.16;100569.69;5035059;28;20502;-76
2021/05/11 02:47:51;;;;;;;11.70;1.60;;;;;;;12.68;67.43;100569.44;5037459;28;20044;-78
2021/05/11 02:50:19;;;;;;;13.47;2.23;;;;;;;12.64;67.04;100559.97;5037308;28;20055;-76
2021/05/11 02:52:47;;;;;;;1.50;0.73;;;;;;;12.60;67.02;100568.13;5033571;28;20128;-72
2021/05/11 02:55:14;;;;;;;1.97;0.90;;;;;;;12.54;67.29;100561.72;5034391;28;20053;-70
2021/05/11 02:57:41;;;;;;;1.97;0.70;;;;;;;12.33;67.28;100544.25;5036940;28;20041;-71
2021/05/11 03:00:11;;;;;;;14.83;1.50;;;;;;;12.39;67.56;100558.22;5038765;28;20449;-71
2021/05/11 03:02:37;;;;;;;;;;;;;;;12.47;67.22;100569.63;5036132;28;20045;-71
2021/05/11 03:05:05;;;;;;;6.37;1.10;;;;;;;12.24;67.72;100573.16;5037245;28;20231;-72
2021/05/11 03:07:32;;;;;;;2.23;1.00;;;;;;;12.08;68.00;100564.88;5037187;28;20486;-72
2021/05/11 03:09:59;;;;;;;4.83;1.30;;;;;;;11.91;68.27;100558.84;5038588;28;20180;-74
2021/05/11 03:12:25;;;;;;;3.50;1.13;;;;;;;11.89;68.52;100568.66;5043825;28;20073;-72
2021/05/11 03:14:51;;;;;;;6.93;1.50;;;;;;;11.81;68.63;100568.09;5043972;28;20051;-71
2021/05/11 03:17:18;;;;;;;5.10;1.37;;;;;;;11.77;68.66;100572.59;5033986;28;20045;-71
2021/05/11 03:19:45;;;;;;;2.80;1.47;;;;;;;11.72;68.92;100566.19;5043999;28;20501;-71
2021/05/11 03:22:11;;;;;;;9.70;1.47;;;;;;;11.72;68.76;100567.03;5039574;28;20038;-68
2021/05/11 03:24:42;;;;;;;4.47;1.10;;;;;;;11.74;68.74;100575.16;5043241;28;20052;-69
2021/05/11 03:27:09;;;;;;;7.70;1.37;;;;;;;11.71;69.06;100578.53;5041711;28;20046;-69
2021/05/11 03:29:35;;;;;;;6.53;1.50;;;;;;;11.68;69.03;100570.69;5036202;28;20482;-75
2021/05/11 03:32:02;;;;;;;4.13;1.17;;;;;;;11.59;68.64;100551.72;5039295;28;20413;-76
2021/05/11 03:34:33;;;;;;;6.67;1.80;;;;;;;11.70;69.02;100568.47;5035486;28;20048;-71
2021/05/11 03:36:59;;;;;;;3.93;1.20;;;;;;;11.70;69.09;100562.88;5035603;28;20156;-75
2021/05/11 03:39:26;;;;;;;2.53;1.00;;;;;;;11.68;69.10;100565.94;5038409;28;20507;-69
2021/05/11 03:41:56;;;;;;;5.97;1.10;;;;;;;11.67;69.12;100552.25;5041915;28;20132;-71
2021/05/11 03:44:26;;;;;;;2.00;0.80;;;;;;;11.68;69.15;100571.53;5039486;28;20145;-68
2021/05/11 03:46:53;;;;;;;2.73;1.27;;;;;;;11.63;69.21;100564.00;5040732;28;20047;-69
2021/05/11 03:49:19;;;;;;;6.63;1.03;;;;;;;11.64;69.16;100567.63;5039024;28;20512;-74
2021/05/11 03:51:47;;;;;;;8.90;1.43;;;;;;;11.67;69.00;100564.28;5040561;28;20048;-71
2021/05/11 03:54:14;;;;;;;4.00;1.13;;;;;;;11.78;68.79;100573.44;5034394;28;20041;-69
2021/05/11 03:56:41;;;;;;;4.57;1.70;;;;;;;11.79;68.43;100561.13;5041390;28;20045;-68
2021/05/11 03:59:08;;;;;;;6.47;1.17;;;;;;;11.96;68.24;100584.00;5040760;28;20048;-69
2021/05/11 04:01:34;;;;;;;4.90;1.27;;;;;;;12.07;68.03;100584.78;5037355;28;20086;-71
2021/05/11 04:04:01;;;;;;;4.57;1.30;;;;;;;12.20;68.07;100583.28;5038214;28;20037;-73
2021/05/11 04:06:28;;;;;;;3.47;1.47;;;;;;;12.20;67.69;100572.06;5036266;28;20047;-74
2021/05/11 04:09:01;;;;;;;3.67;1.20;;;;;;;12.32;67.75;100592.16;5038306;28;20064;-69
2021/05/11 04:16:42;;;;;;;3.17;1.10;;;;;;;12.34;67.69;100595.50;5034202;28;20045;-65
2021/05/11 04:19:10;;;;;;;4.47;1.20;;;;;;;12.27;67.52;100566.97;5038804;28;20123;-69
2021/05/11 04:21:38;;;;;;;9.17;1.50;;;;;;;12.43;67.47;100590.94;5038228;28;20047;-70
2021/05/11 04:24:05;;;;;;;2.47;1.10;;;;;;;12.41;67.58;100586.75;5040227;28;20055;-71
2021/05/11 04:26:32;;;;;;;3.43;1.00;;;;;;;12.33;67.46;100591.84;5035514;28;20072;-75
2021/05/11 04:29:01;;;;;;;3.43;1.20;;;;;;;12.29;68.03;100598.34;5039266;28;20135;-75
2021/05/11 04:31:27;;;;;;;3.40;0.80;;;;;;;12.05;68.08;100575.84;5034162;28;20049;-63
2021/05/11 04:33:56;;;;;;;6.97;1.83;;;;;;;12.20;68.28;100597.28;5043141;28;20695;-65
2021/05/11 04:36:23;;;;;;;4.97;1.47;;;;;;;12.17;68.08;100593.13;5040101;28;20124;-66
2021/05/11 04:38:50;;;;;;;10.17;1.30;;;;;;;12.21;68.06;100601.78;5038804;28;20049;-66
2021/05/11 04:41:17;;;;;;;6.87;1.93;;;;;;;12.30;67.75;100609.25;5040504;28;20045;-68
2021/05/11 04:43:45;;;;;;;4.97;1.70;;;;;;;12.22;67.64;100598.66;5039692;28;20057;-70
2021/05/11 04:48:52;;;;;;;6.20;1.47;;;;;;;12.26;68.01;100619.34;5036961;28;20045;-71
2021/05/11 04:51:21;;;;;;;10.37;1.43;;;;;;;12.21;68.04;100601.78;5037646;28;20092;-70
2021/05/11 04:53:48;;;;;;;4.40;1.07;;;;;;;12.27;68.24;100622.97;5040274;28;20072;-71
2021/05/11 04:56:15;;;;;;;2.00;1.00;;;;;;;12.24;68.32;100617.97;5040764;28;20140;-68
2021/05/11 04:58:42;;;;;;;6.80;1.10;;;;;;;12.23;68.35;100617.13;5038887;28;20067;-68
2021/05/11 05:01:09;;;;;;;3.87;0.80;;;;;;;12.26;68.69;100615.72;5039380;28;20048;-70
2021/05/11 05:03:39;;;;;;;4.93;1.27;;;;;;;12.28;68.55;100614.31;5041935;28;20500;-68
2021/05/11 05:06:06;;;;;;;;;;;;;;;12.31;68.63;100612.91;5040239;28;20045;-66
2021/05/11 05:08:33;;;;;;;3.57;0.83;;;;;;;12.36;68.22;100631.63;5040137;28;19933;-66
2021/05/11 05:11:00;;;;;;;5.30;0.73;;;;;;;12.35;68.13;100635.56;5039630;28;20139;-69
2021/05/11 05:13:27;;;;;;;2.40;1.10;;;;;;;12.28;68.13;100613.47;5032731;28;20510;-71
2021/05/11 05:15:58;;;;;;;13.03;1.73;;;;;;;12.31;68.28;100626.91;5034572;28;20418;-69
2021/05/11 05:18:29;;;;;;;7.73;2.00;;;;;;;12.28;68.33;100639.50;5038330;28;20073;-71
2021/05/11 05:20:56;;;;;;;2.20;1.10;;;;;;;12.22;68.36;100642.63;5037694;28;20053;-71
2021/05/11 05:23:30;;;;;;;3.00;1.20;;;;;;;12.21;68.56;100655.78;5034300;28;20489;-68
2021/05/11 05:26:04;;;;;;;5.77;1.73;;;;;;;12.18;68.69;100661.13;5035393;28;20048;-71
2021/05/11 05:28:35;;;;;;;4.43;1.30;;;;;;;12.11;68.66;100650.25;5034675;28;20042;-73
2021/05/11 05:31:02;;;;;;;3.07;1.40;;;;;;;12.11;68.93;100652.22;5036485;28;20048;-65
2021/05/11 05:33:35;;;;;;;4.87;1.33;;;;;;;12.09;69.03;100656.13;5038933;28;20472;-76
2021/05/11 05:36:03;;;;;;;5.77;1.40;;;;;;;12.15;68.80;100656.13;5033950;28;20041;-78
2021/05/11 05:38:31;;;;;;;5.23;1.27;;;;;;;12.21;68.84;100660.56;5038676;28;20052;-75
2021/05/11 05:41:03;;;;;;;2.43;1.13;;;;;;;12.13;68.75;100647.16;5043276;28;20117;-73
2021/05/11 05:43:30;;;;;;;8.07;1.63;;;;;;;12.27;68.65;100673.38;5033653;28;20106;-72
2021/05/11 05:45:57;;;;;;;4.60;1.93;;;;;;;12.17;68.89;100663.09;5038593;28;20047;-71
2021/05/11 05:48:24;;;;;;;8.47;1.90;;;;;;;12.29;68.98;100671.16;5031389;28;20044;-73
2021/05/11 05:50:55;;;;;;;5.77;1.40;;;;;;;12.39;68.96;100676.69;5034455;28;20057;-72
2021/05/11 05:53:25;;;;;;;2.67;1.13;;;;;;;12.47;69.22;100676.06;5036972;28;20045;-75
2021/05/11 05:55:52;;;;;;;;;;;;;;;12.60;69.43;100685.78;5031878;28;20132;-74
2021/05/11 05:58:18;;;;;;;4.03;1.80;;;;;;;12.72;69.38;100683.47;5035646;28;20037;-75
2021/05/11 06:00:46;;;;;;;3.47;1.10;;;;;;;12.71;69.00;100692.16;5034007;28;20494;-72
2021/05/11 06:03:50;;;;;;;3.37;2.07;;;;;;;12.60;68.85;100705.41;5037872;28;20052;-75
2021/05/11 06:06:11;;;;;;;4.27;1.60;;;;;;;12.37;69.13;100704.13;5034557;28;20488;-74
2021/05/11 06:08:39;;;;;;;4.97;1.63;;;;;;;12.34;69.18;100715.91;5038082;28;20048;-74
2021/05/11 06:13:51;;;;;;;5.57;1.47;;;;;;;12.15;69.21;100714.91;5035498;28;20137;-73
2021/05/11 06:19:04;;;;;;;2.70;1.40;;;;;;;11.93;69.66;100732.91;5039542;28;20045;-73
2021/05/11 06:21:32;;;;;;;7.87;1.90;;;;;;;12.13;69.76;100740.38;5036019;28;20095;-74
2021/05/11 06:23:58;;;;;;;9.97;2.07;;;;;;;12.17;69.69;100747.09;5036804;28;20037;-75
2021/05/11 06:26:25;;;;;;;8.90;2.47;;;;;;;12.21;69.93;100745.41;5043398;28;20515;-76
2021/05/11 06:28:54;;;;;;;4.97;1.87;;;;;;;12.23;70.20;100745.91;5032170;28;20535;-75
2021/05/11 06:31:21;;;;;;;7.67;1.83;;;;;;;12.29;70.05;100743.94;5033320;28;20045;-73
2021/05/11 06:33:47;;;;;;;5.63;1.87;;;;;;;12.37;70.07;100750.91;5037626;28;20041;-74
2021/05/11 06:36:14;;;;;;;5.10;2.00;;;;;;;12.42;69.89;100748.94;5037373;28;20046;-78
2021/05/11 06:38:41;;;;;;;6.77;2.30;;;;;;;12.52;69.90;100748.88;5035187;28;20522;-74
2021/05/11 06:41:12;;;;;;;4.00;1.40;;;;;;;12.50;70.00;100745.50;5037700;28;20056;-79
2021/05/11 06:43:41;;;;;;;3.60;1.27;;;;;;;12.35;69.81;100741.97;5037772;28;20045;-80
2021/05/11 06:48:48;;;;;;;5.00;1.90;;;;;;;12.29;70.40;100764.38;5040882;28;20132;-81
2021/05/11 06:53:49;;;;;;;3.87;1.70;;;;;;;12.80;70.25;100766.06;5038842;28;20124;-81
2021/05/11 06:56:22;;;;;;;11.60;2.17;;;;;;;13.09;70.13;100763.31;5035561;28;20413;-82
2021/05/11 06:58:49;;;;;;;7.00;2.47;;;;;;;13.40;70.14;100763.09;5036652;28;20049;-84
2021/05/11 07:01:21;;;;;;;9.50;2.30;;;;;;;13.82;69.73;100765.22;5043208;28;20088;-82
2021/05/11 07:03:48;;;;;;;8.67;2.47;;;;;;;14.15;69.40;100769.06;5036292;28;20055;-83
2021/05/11 07:06:16;;;;;;;8.30;2.97;;;;;;;14.34;68.82;100749.44;5035737;28;20041;-81
2021/05/11 07:08:50;;;;;;;3.63;2.30;;;;;;;14.79;68.45;100775.25;5034510;28;20050;-83
2021/05/11 07:13:49;;;;;;;6.37;2.10;;;;;;;15.41;67.78;100784.38;5042516;28;20053;-82
2021/05/11 07:16:16;;;;;;;4.77;2.10;;;;;;;15.73;67.35;100793.19;5036945;28;20038;-83
2021/05/11 07:18:44;;;;;;;5.40;2.13;;;;;;;16.00;67.09;100795.19;5035490;28;20387;-82
2021/05/11 07:21:10;;;;;;;7.40;2.07;;;;;;;16.05;66.34;100795.09;5035327;28;20045;-82
2021/05/11 07:23:38;;;;;;;7.30;3.30;;;;;;;16.09;66.15;100791.34;5035612;28;20045;-82
2021/05/11 07:31:28;;;;;;;5.57;1.88;;;;;;;16.15;65.58;100803.34;5038224;28;20041;-84
2021/05/11 07:33:56;;;;;;;3.95;1.65;;;;;;;16.14;64.91;100817.72;5041491;28;20129;-83
2021/05/11 07:36:23;;;;;;;5.97;1.58;;;;;;;16.24;65.11;100823.16;5037546;28;20559;-84
2021/05/11 07:38:50;;;;;;;4.47;1.88;;;;;;;16.55;65.14;100821.41;5037645;28;20139;-83
2021/05/11 07:41:18;;;;;;;5.57;2.35;;;;;;;16.86;64.87;100820.78;5041195;28;20077;-83
2021/05/11 07:43:51;;;;;;;6.65;2.42;;;;;;;17.25;64.06;100827.78;5036461;28;20053;-83
2021/05/11 08:05:32;;;;;;;7.63;2.17;;;;;;;16.53;63.12;100831.34;5036560;28;20042;-85
2021/05/11 08:16:09;;;;;;;7.88;2.15;;;;;;;17.10;62.08;100857.19;5046649;28;20052;-82
2021/05/11 08:29:25;;;;;;;3.72;1.25;;;;;;;19.53;56.34;100858.41;5035419;28;20156;-82
2021/05/11 08:31:52;;;;;;;4.07;1.55;;;;;;;19.97;54.81;100861.22;5047885;28;20569;-84
2021/05/11 08:34:19;;;;;;;4.93;1.40;;;;;;;20.35;53.03;100855.59;5037407;28;20041;-84
2021/05/11 08:36:46;;;;;;;7.10;1.58;;;;;;;20.57;50.25;100852.50;5038057;28;20469;-85
2021/05/11 08:39:13;;;;;;;6.18;1.27;;;;;;;20.80;50.17;100855.09;5039689;28;20132;-84
2021/05/11 08:41:40;;;;;;;4.95;1.23;;;;;;;21.08;49.51;100857.41;5038419;28;20117;-82
2021/05/11 08:44:13;;;;;;;8.50;1.42;;;;;;;20.93;49.46;100831.31;5047276;28;20076;-85
2021/05/11 08:46:41;;;;;;;5.40;1.70;;;;;;;20.96;47.57;100849.66;5046030;28;20124;-84
2021/05/11 08:49:12;;;;;;;5.60;1.38;;;;;;;20.64;46.91;100854.81;5041458;28;20077;-85
2021/05/11 08:55:06;;;;;;;5.20;1.80;;;;;;;19.75;47.64;100859.41;5056611;28;20080;-84
2021/05/11 09:06:17;;;;;;;6.47;1.67;;;;;;;18.75;48.04;100858.28;5043567;28;20073;-82
2021/05/11 09:25:31;;;;;;;2.92;1.42;;;;;;;18.35;46.82;100863.09;5044121;28;20049;-84
2021/05/11 09:28:08;;;;;;;7.22;1.98;;;;;;;18.18;46.85;100870.31;5037668;28;20135;-84
2021/05/11 09:33:36;;;;;;;6.88;1.67;;;;;;;17.95;47.51;100875.19;5043122;28;20477;-83
2021/05/11 10:48:22;;;;;;;4.20;2.13;;;;;;;22.05;41.72;100921.66;5051679;28;20045;-78
2021/05/11 10:51:16;;;;;;;4.85;1.42;;;;;;;22.14;41.57;100913.88;5040422;28;20041;-78
2021/05/11 10:53:47;;;;;;;4.75;2.10;;;;;;;22.26;40.79;100916.81;5042306;28;20120;-78
2021/05/11 11:01:56;;;;;;;3.38;1.55;;;;;;;22.45;37.97;100925.63;5051750;28;20049;-80
2021/05/11 11:04:31;;;;;;;3.67;2.13;;;;;;;22.63;38.51;100925.41;5045717;28;20057;-80
2021/05/11 11:06:58;;;;;;;4.25;1.48;;;;;;;22.82;37.68;100930.56;5041686;28;20052;-78
2021/05/11 11:09:25;;;;;;;5.55;1.60;;;;;;;22.61;37.66;100910.72;5036306;28;20046;-77
2021/05/11 11:11:53;;;;;;;5.30;1.90;;;;;;;22.73;37.54;100915.59;5041132;28;20049;-77
2021/05/11 11:14:21;;;;;;;5.07;1.70;;;;;;;22.99;37.49;100913.25;5038184;28;20041;-79
2021/05/11 11:16:58;;;;;;;2.70;1.70;;;;;;;22.92;37.62;100899.63;5041281;28;20045;-77
2021/05/11 11:19:26;;;;;;;2.00;1.35;;;;;;;23.35;37.01;100912.41;5044228;28;20045;-78
2021/05/11 11:24:34;;;;;;;6.75;1.63;;;;;;;23.22;37.09;100907.91;5041925;28;20120;-77
2021/05/11 11:27:01;;;;;;;9.40;2.10;;;;;;;23.13;37.57;100915.75;5037849;28;20055;-81
2021/05/11 11:29:28;;;;;;;6.00;1.75;;;;;;;23.38;37.20;100914.56;5047977;28;20129;-81
2021/05/11 11:31:56;;;;;;;3.80;1.40;;;;;;;23.33;37.02;100911.94;5053150;28;20569;-81
2021/05/11 11:34:24;;;;;;;4.50;1.42;;;;;;;23.00;37.18;100919.78;5044288;28;20045;-82
2021/05/11 11:36:58;;;;;;;4.82;1.55;;;;;;;23.07;37.29;100914.31;5044953;28;20112;-81
2021/05/11 11:39:32;;;;;;;7.82;1.75;;;;;;;22.97;37.48;100889.16;5037055;28;20041;-83
2021/05/11 11:42:04;;;;;;;2.75;1.52;;;;;;;23.23;36.96;100915.28;5037384;28;20148;-82
2021/05/11 11:44:36;;;;;;;5.35;1.70;;;;;;;23.30;37.11;100912.66;5042513;28;20418;-81
2021/05/11 11:47:11;;;;;;;5.10;1.63;;;;;;;23.46;36.27;100906.22;5040998;28;20109;-82
2021/05/11 11:49:49;;;;;;;2.78;2.03;;;;;;;23.70;36.33;100908.22;5041471;28;20103;-82
2021/05/11 11:52:29;;;;;;;4.57;1.45;;;;;;;24.14;36.19;100909.09;5053573;28;20075;-83
2021/05/11 12:00:20;;;;;;;3.58;1.35;;;;;;;24.30;34.92;100895.66;5042462;28;20045;-82
2021/05/11 12:02:53;;;;;;;3.85;1.40;;;;;;;24.13;35.01;100901.72;5041419;28;20486;-83
2021/05/11 12:05:24;;;;;;;3.70;1.50;;;;;;;24.98;34.13;100902.34;5040953;28;20050;-82
2021/05/11 12:11:01;;;;;;;6.40;2.10;;;;;;;26.47;31.39;100904.06;5067527;28;20052;-81
2021/05/11 12:13:33;;;;;;;3.42;0.90;;;;;;;26.60;31.17;100882.63;5068107;28;20040;-82
2021/05/11 12:16:27;;;;;;;5.50;1.52;;;;;;;25.81;32.03;100890.84;5053735;28;20044;-83
2021/05/11 12:19:17;;;;;;;7.75;1.50;;;;;;;24.81;33.35;100892.97;5038747;28;20532;-83
2021/05/11 12:21:53;;;;;;;5.57;1.30;;;;;;;23.09;35.15;100892.03;5035301;28;20056;-81
2021/05/11 12:24:29;;;;;;;3.38;1.35;;;;;;;23.76;34.28;100893.34;5044566;28;20042;-81
2021/05/11 12:27:22;;;;;;;7.90;1.63;;;;;;;23.16;34.76;100883.69;5038790;28;20045;-82
2021/05/11 12:30:04;;;;;;;3.53;1.40;;;;;;;21.88;36.61;100886.56;5040993;28;20075;-81
2021/05/11 12:32:35;;;;;;;6.05;1.80;;;;;;;21.00;37.49;100898.91;5040418;28;20049;-74
2021/05/11 12:35:07;;;;;;;5.75;1.70;;;;;;;20.62;38.29;100870.56;5038143;28;20083;-72
2021/05/11 12:37:56;;;;;;;4.25;1.20;;;;;;;20.58;38.76;100867.53;5037876;28;20067;-72
2021/05/11 12:40:31;;;;;;;4.40;1.35;;;;;;;20.07;39.63;100884.38;5040645;28;20046;-69
2021/05/11 12:43:01;;;;;;;3.60;1.30;;;;;;;19.95;39.79;100891.91;5043229;28;20057;-71
2021/05/11 12:45:35;;;;;;;4.43;1.33;;;;;;;20.76;39.08;100880.47;5034491;28;20045;-77
2021/05/11 12:48:04;;;;;;;1.90;1.15;;;;;;;21.96;37.13;100871.41;5036856;28;20059;-73
2021/05/11 12:50:39;;;;;;;2.92;1.10;;;;;;;23.89;35.11;100880.66;5031658;28;20128;-72
2021/05/11 12:53:43;;;;;;;2.00;1.02;;;;;;;23.30;35.28;100883.31;5036659;28;20395;-72
2021/05/11 12:57:26;;;;;;;2.55;0.70;;;;;;;23.49;35.08;100879.84;5036291;28;20042;-71
2021/05/11 13:15:05;;;;;;;2.97;1.13;;;;;;;20.57;38.50;100865.88;5040654;28;20053;-81
2021/05/11 13:33:19;;;;;;;6.25;1.90;;;;;;;19.84;39.91;100891.41;5034042;28;20045;-70
2021/05/11 13:35:46;;;;;;;7.25;1.55;;;;;;;19.82;40.34;100893.72;5038191;28;20045;-69
2021/05/11 13:38:13;;;;;;;6.45;2.17;;;;;;;19.81;40.12;100897.75;5040039;28;20060;-69
2021/05/11 13:40:40;;;;;;;4.40;1.20;;;;;;;19.82;40.23;100896.56;5040713;28;20049;-70
2021/05/11 13:43:07;;;;;;;4.13;1.17;;;;;;;19.81;40.70;100892.91;5033094;28;20056;-69
2021/05/11 13:45:34;;;;;;;4.20;1.83;;;;;;;19.70;40.61;100874.59;5033404;28;20132;-69
2021/05/11 13:48:06;;;;;;;7.38;1.58;;;;;;;19.85;40.94;100890.22;5041518;28;20405;-70
2021/05/11 13:53:09;;;;;;;3.83;1.65;;;;;;;19.90;40.41;100887.25;5035514;28;20045;-70
2021/05/11 13:56:29;;;;;;;7.00;2.33;;;;;;;19.76;40.76;100872.41;5033998;28;20144;-69
2021/05/11 14:03:57;;;;;;;4.55;1.65;;;;;;;19.92;40.45;100870.72;5031073;28;20060;-71
2021/05/11 14:06:24;;;;;;;7.28;1.05;;;;;;;19.86;40.71;100867.25;5030924;28;20052;-72
2021/05/11 14:08:53;;;;;;;1.27;0.70;;;;;;;19.83;40.73;100861.41;5032510;28;20048;-72
2021/05/11 14:11:20;;;;;;;3.08;1.00;;;;;;;19.79;40.93;100866.88;5037455;28;20181;-77
2021/05/11 14:13:48;;;;;;;5.65;1.20;;;;;;;19.80;41.32;100867.75;5037182;28;20050;-69
2021/05/11 14:16:15;;;;;;;5.18;1.00;;;;;;;19.57;41.29;100845.22;5029525;28;20694;-66
2021/05/11 14:18:41;;;;;;;3.05;1.20;;;;;;;19.60;41.35;100872.88;5030396;28;20056;-67
2021/05/11 14:21:11;;;;;;;5.60;1.25;;;;;;;19.16;42.20;100848.56;5031296;28;20382;-67
2021/05/11 14:23:38;;;;;;;7.88;1.42;;;;;;;18.89;42.80;100838.34;5037175;28;20053;-67
2021/05/11 14:26:05;;;;;;;2.65;1.00;;;;;;;19.05;42.82;100859.38;5037890;28;20041;-73
2021/05/11 14:28:32;;;;;;;8.15;1.45;;;;;;;19.24;42.81;100853.38;5030635;28;20042;-75
2021/05/11 14:30:59;;;;;;;5.43;1.25;;;;;;;19.14;42.81;100851.72;5034844;28;20458;-77
2021/05/11 14:33:26;;;;;;;5.05;1.05;;;;;;;19.04;42.61;100840.72;5030202;28;20047;-78
2021/05/11 14:35:53;;;;;;;2.97;1.23;;;;;;;18.95;42.50;100842.69;5031400;28;20088;-76
2021/05/11 14:38:20;;;;;;;1.50;0.80;;;;;;;19.03;43.11;100835.38;5041339;28;20049;-72
2021/05/11 14:40:47;;;;;;;5.78;1.00;;;;;;;19.11;42.37;100832.56;5032022;28;20402;-76
2021/05/11 14:43:14;;;;;;;5.05;1.00;;;;;;;19.30;42.73;100826.56;5041940;28;20092;-76
2021/05/11 14:45:41;;;;;;;6.47;1.63;;;;;;;19.46;42.59;100824.09;5035608;28;20526;-78
2021/05/11 14:48:08;;;;;;;7.93;1.50;;;;;;;19.45;41.86;100833.72;5035012;28;20056;-76
2021/05/11 14:50:35;;;;;;;4.75;1.10;;;;;;;19.29;41.45;100821.25;5039945;28;20354;-78
2021/05/11 14:53:02;;;;;;;3.70;0.77;;;;;;;19.04;41.93;100834.22;5041114;28;20052;-82
2021/05/11 14:55:28;;;;;;;5.35;1.75;;;;;;;18.98;41.51;100819.41;5034879;28;20045;-69
2021/05/11 14:57:56;;;;;;;6.32;1.33;;;;;;;18.98;41.36;100836.38;5033810;28;20067;-69
2021/05/11 15:00:25;;;;;;;8.98;1.23;;;;;;;19.08;41.37;100823.91;5041324;28;20126;-69
2021/05/11 15:02:52;;;;;;;5.97;0.98;;;;;;;19.15;41.80;100821.41;5041908;28;20049;-69
2021/05/11 15:05:19;;;;;;;4.50;1.60;;;;;;;19.15;41.30;100819.41;5039244;28;20048;-69
2021/05/11 15:07:49;;;;;;;3.22;0.95;;;;;;;19.15;40.96;100805.25;5042260;28;20132;-69
2021/05/11 15:10:17;;;;;;;1.83;0.60;;;;;;;19.20;41.18;100818.41;5038221;28;20056;-69
2021/05/11 15:12:44;;;;;;;3.30;1.02;;;;;;;19.07;40.90;100811.72;5032667;28;20064;-68
2021/05/11 15:15:16;;;;;;;6.15;1.42;;;;;;;18.98;41.60;100801.59;5036339;28;20048;-70
2021/05/11 15:20:14;;;;;;;5.22;1.38;;;;;;;18.81;42.45;100802.41;5040776;28;20489;-68
2021/05/11 15:23:02;;;;;;;4.85;1.60;;;;;;;18.84;43.07;100799.75;5038315;28;20482;-68
2021/05/11 15:25:30;;;;;;;4.03;1.20;;;;;;;18.80;43.71;100790.22;5039737;28;20044;-69
2021/05/11 15:27:57;;;;;;;4.53;1.20;;;;;;;18.69;44.76;100812.31;5034413;28;20091;-69
2021/05/11 15:30:27;;;;;;;1.70;0.90;;;;;;;18.48;45.12;100791.47;5034301;28;20046;-70
2021/05/11 15:32:56;;;;;;;8.57;1.27;;;;;;;18.45;45.97;100794.94;5036051;28;20144;-69
2021/05/11 15:35:29;;;;;;;4.75;1.10;;;;;;;18.35;46.84;100796.06;5035041;28;20128;-68
2021/05/11 15:38:01;;;;;;;11.77;1.73;;;;;;;18.28;46.92;100784.41;5038357;28;20528;-69
2021/05/11 15:40:36;;;;;;;9.77;1.45;;;;;;;18.37;47.19;100799.41;5038015;28;20065;-69
2021/05/11 15:43:04;;;;;;;6.53;1.48;;;;;;;18.24;47.08;100789.03;5044595;28;20056;-69
2021/05/11 15:45:31;;;;;;;11.88;1.23;;;;;;;18.34;47.13;100808.53;5032895;28;20049;-69
2021/05/11 15:48:02;;;;;;;10.77;1.85;;;;;;;18.28;47.54;100812.66;5037750;28;20049;-69
2021/05/11 15:50:33;;;;;;;1.50;0.82;;;;;;;18.21;47.12;100807.47;5035612;28;20046;-67
2021/05/11 15:53:03;;;;;;;4.07;2.15;;;;;;;18.08;47.45;100802.78;5042543;28;20520;-67
2021/05/11 15:55:30;;;;;;;3.72;1.83;;;;;;;18.05;48.00;100813.88;5038356;28;20044;-72
2021/05/11 15:57:58;;;;;;;4.50;1.05;;;;;;;17.86;48.51;100828.25;5037242;28;20523;-70
2021/05/11 16:00:25;;;;;;;5.30;1.10;;;;;;;17.81;48.71;100839.69;5038760;28;20462;-70
2021/05/11 16:03:02;;;;;;;6.07;2.03;;;;;;;17.66;48.74;100838.88;5031943;28;20045;-68
2021/05/11 16:05:30;;;;;;;7.55;1.23;;;;;;;17.82;48.64;100813.94;5038963;28;20184;-74
2021/05/11 16:07:57;;;;;;;5.32;1.55;;;;;;;17.90;48.44;100807.50;5036449;28;20045;-73
2021/05/11 16:10:26;;;;;;;5.40;1.20;;;;;;;17.89;48.46;100793.72;5035609;28;20049;-77
2021/05/11 16:12:53;;;;;;;3.10;1.10;;;;;;;17.97;48.28;100813.53;5044492;28;20037;-83
2021/05/11 16:15:21;;;;;;;1.83;0.82;;;;;;;17.89;48.02;100800.19;5033883;28;20037;-83
2021/05/11 16:17:48;;;;;;;5.97;1.20;;;;;;;17.96;47.91;100808.22;5042096;28;20137;-84
2021/05/11 16:20:15;;;;;;;5.20;1.60;;;;;;;17.89;47.73;100803.03;5039339;28;20055;-74